Time;durP1;ratioP1;P1;durP2;ratioP2;P2;SDS_P1;SDS_P2;PMS_P1;PMS_P2;Temp;Humidity;BMP_temperature;BMP_pressure;BME280_temperature;BME280_humidity;BME280_pressure;Samples;Min_cycle;Max_cycle;Signal;HPM_P1;HPM_P2
2022/06/30 00:00:15;;;;;;;0.00;0.00;;;;;;;18.46;57.66;100312.66;7350657;19;20124;-63
2022/06/30 00:02:41;;;;;;;0.00;0.00;;;;;;;18.39;58.02;100309.53;7352854;19;20010;-63
2022/06/30 00:05:07;;;;;;;0.00;0.00;;;;;;;18.36;58.59;100311.53;7352638;19;20007;-63
2022/06/30 00:07:32;;;;;;;0.00;0.00;;;;;;;18.34;58.29;100316.91;7352174;19;20015;-63
2022/06/30 00:09:57;;;;;;;0.00;0.00;;;;;;;18.30;58.62;100317.22;7348217;19;20026;-63
2022/06/30 00:12:23;;;;;;;0.00;0.00;;;;;;;18.18;58.37;100297.63;7352807;19;20019;-63
2022/06/30 00:14:48;;;;;;;0.00;0.00;;;;;;;18.22;58.96;100309.72;7351622;19;20025;-63
2022/06/30 00:17:14;;;;;;;0.00;0.00;;;;;;;18.16;58.56;100315.38;7352746;19;20010;-63
2022/06/30 00:19:40;;;;;;;0.00;0.00;;;;;;;18.15;58.85;100313.69;7352057;19;20023;-63
2022/06/30 00:22:07;;;;;;;0.00;0.00;;;;;;;18.10;58.38;100306.03;7349818;19;20113;-63
2022/06/30 00:24:32;;;;;;;;;;;;;;;18.10;55.56;100311.31;7353619;19;20734;-63
2022/06/30 00:26:58;;;;;;;0.00;0.00;;;;;;;18.05;58.91;100312.56;7350711;19;19925;-63
2022/06/30 00:29:23;;;;;;;0.08;0.08;;;;;;;18.00;58.65;100317.25;7348690;19;20010;-63
2022/06/30 00:31:49;;;;;;;0.00;0.00;;;;;;;17.94;58.94;100313.16;7348223;19;20150;-63
2022/06/30 00:34:14;;;;;;;0.00;0.00;;;;;;;17.91;59.23;100309.88;7350504;19;20033;-63
2022/06/30 00:36:40;;;;;;;0.00;0.00;;;;;;;17.87;59.62;100314.47;7351646;19;20081;-63
2022/06/30 00:39:06;;;;;;;0.00;0.00;;;;;;;17.84;59.92;100315.53;7350658;19;20022;-63
2022/06/30 00:41:31;;;;;;;0.05;0.05;;;;;;;17.82;59.91;100317.38;7353187;19;20014;-63
2022/06/30 00:43:56;;;;;;;0.00;0.00;;;;;;;17.80;59.83;100318.44;7351305;19;20029;-63
2022/06/30 00:46:23;;;;;;;0.00;0.00;;;;;;;17.77;59.94;100314.16;7353262;19;20006;-63
2022/06/30 00:48:49;;;;;;;0.00;0.00;;;;;;;17.74;60.49;100309.09;7349507;19;20010;-63
2022/06/30 00:51:14;;;;;;;0.10;0.10;;;;;;;17.73;60.55;100317.91;7351974;19;20015;-63
2022/06/30 00:53:41;;;;;;;0.00;0.00;;;;;;;17.71;60.90;100309.22;7350637;19;20031;-63
2022/06/30 00:56:08;;;;;;;0.00;0.00;;;;;;;17.73;60.62;100311.78;7353713;19;20018;-63
2022/06/30 00:58:44;;;;;;;0.00;0.00;;;;;;;17.66;59.89;100302.50;7351496;19;20093;-63
2022/06/30 01:01:12;;;;;;;0.00;0.00;;;;;;;17.72;60.71;100316.19;7349454;19;20017;-63
2022/06/30 01:03:38;;;;;;;0.00;0.00;;;;;;;17.60;60.51;100294.00;7348062;19;20022;-63
2022/06/30 01:06:05;;;;;;;0.00;0.00;;;;;;;17.71;60.92;100313.66;7351594;19;20010;-63
2022/06/30 01:08:32;;;;;;;0.10;0.10;;;;;;;17.68;60.40;100314.66;7351450;19;20449;-63
2022/06/30 01:13:44;;;;;;;0.00;0.00;;;;;;;17.66;60.70;100321.84;7351070;19;20024;-63
2022/06/30 01:16:10;;;;;;;0.00;0.00;;;;;;;17.62;60.87;100309.75;7350911;19;20014;-63
2022/06/30 01:18:36;;;;;;;0.00;0.00;;;;;;;17.61;60.99;100310.69;7348354;19;20852;-63
2022/06/30 01:21:02;;;;;;;0.00;0.00;;;;;;;17.62;60.67;100312.38;7352756;19;20032;-63
2022/06/30 01:23:27;;;;;;;0.00;0.00;;;;;;;17.60;61.21;100327.47;7351022;19;20457;-63
2022/06/30 01:25:53;;;;;;;0.00;0.00;;;;;;;17.59;61.54;100326.63;7350540;19;20006;-63
2022/06/30 01:28:19;;;;;;;0.00;0.00;;;;;;;17.59;61.61;100320.50;7351013;19;20743;-63
2022/06/30 01:30:45;;;;;;;0.00;0.00;;;;;;;17.47;61.57;100300.06;7356758;19;20494;-63
2022/06/30 01:33:10;;;;;;;0.00;0.00;;;;;;;17.48;61.86;100304.41;7354652;19;20037;-63
2022/06/30 01:35:36;;;;;;;0.00;0.00;;;;;;;17.60;62.36;100328.31;7355724;19;20011;-63
2022/06/30 01:38:01;;;;;;;0.00;0.00;;;;;;;17.61;61.65;100321.25;7353038;19;20920;-63
2022/06/30 01:40:33;;;;;;;0.00;0.00;;;;;;;17.62;62.08;100325.59;7354688;19;20011;-63
2022/06/30 01:42:59;;;;;;;0.00;0.00;;;;;;;17.61;61.48;100323.91;7352859;19;20077;-63
2022/06/30 01:45:24;;;;;;;0.00;0.00;;;;;;;17.63;61.99;100327.28;7355227;19;21410;-63
2022/06/30 01:47:53;;;;;;;0.00;0.00;;;;;;;17.63;62.21;100324.66;7357122;19;20045;-63
2022/06/30 01:50:24;;;;;;;0.00;0.00;;;;;;;17.66;61.25;100332.41;7352573;19;20011;-63
2022/06/30 01:52:49;;;;;;;0.00;0.00;;;;;;;17.59;61.91;100317.88;7353491;19;20006;-63
2022/06/30 01:55:15;;;;;;;0.00;0.00;;;;;;;17.66;62.00;100335.03;7356545;19;20011;-63
2022/06/30 01:57:41;;;;;;;0.00;0.00;;;;;;;17.66;62.09;100328.91;7346476;19;20513;-63
2022/06/30 02:00:10;;;;;;;0.00;0.00;;;;;;;17.68;61.97;100334.94;7361924;19;20678;-64
2022/06/30 02:02:36;;;;;;;0.00;0.00;;;;;;;17.67;62.20;100328.81;7359472;19;20040;-64
2022/06/30 02:05:02;;;;;;;0.00;0.00;;;;;;;17.63;61.69;100322.00;7357733;19;20017;-63
2022/06/30 02:07:28;;;;;;;0.03;0.03;;;;;;;17.67;62.08;100331.44;7361536;19;20007;-63
2022/06/30 02:09:53;;;;;;;0.10;0.10;;;;;;;17.64;61.77;100321.09;7361185;19;20033;-63
2022/06/30 02:15:06;;;;;;;0.00;0.00;;;;;;;17.64;61.59;100321.09;7362926;19;20109;-63
2022/06/30 02:17:32;;;;;;;0.00;0.00;;;;;;;17.62;61.76;100320.31;7363202;19;20819;-63
2022/06/30 02:19:57;;;;;;;0.00;0.00;;;;;;;17.59;61.90;100321.34;7361485;19;20014;-63
2022/06/30 02:22:23;;;;;;;0.10;0.10;;;;;;;17.56;61.99;100318.03;7361822;19;20014;-63
2022/06/30 02:24:48;;;;;;;0.10;0.10;;;;;;;17.55;61.87;100319.81;7361686;19;20100;-63
2022/06/30 02:27:14;;;;;;;0.00;0.00;;;;;;;17.54;61.84;100319.91;7362949;19;21142;-63
2022/06/30 02:29:39;;;;;;;0.00;0.00;;;;;;;17.52;61.57;100319.13;7360564;19;20017;-63
2022/06/30 02:32:05;;;;;;;0.00;0.00;;;;;;;17.42;61.80;100308.25;7362944;19;20034;-63
2022/06/30 02:34:31;;;;;;;0.00;0.00;;;;;;;17.40;62.15;100307.50;7362303;19;20006;-63
2022/06/30 02:36:56;;;;;;;0.00;0.00;;;;;;;17.45;61.97;100317.81;7361524;19;20106;-63
2022/06/30 02:39:22;;;;;;;0.00;0.00;;;;;;;17.44;62.29;100316.09;7362535;19;20037;-63
2022/06/30 02:41:47;;;;;;;0.00;0.00;;;;;;;17.26;62.12;100296.88;7361717;19;20034;-64
2022/06/30 02:44:13;;;;;;;0.10;0.10;;;;;;;17.39;61.90;100316.38;7360219;19;20007;-63
2022/06/30 02:46:38;;;;;;;0.10;0.10;;;;;;;17.30;61.97;100315.09;7363416;19;20914;-63
2022/06/30 02:49:04;;;;;;;0.00;0.00;;;;;;;17.34;62.23;100319.25;7360736;19;20018;-63
2022/06/30 02:51:30;;;;;;;0.00;0.00;;;;;;;17.24;62.36;100307.53;7360913;19;20125;-63
2022/06/30 02:53:55;;;;;;;0.00;0.00;;;;;;;17.30;62.17;100324.81;7363060;19;20035;-64
2022/06/30 02:56:20;;;;;;;0.00;0.00;;;;;;;17.29;62.06;100313.41;7368003;19;20010;-64
2022/06/30 02:58:47;;;;;;;0.00;0.00;;;;;;;17.25;61.95;100319.78;7363906;19;20026;-63
2022/06/30 03:01:13;;;;;;;0.00;0.00;;;;;;;17.17;62.17;100306.16;7366852;19;21908;-63
2022/06/30 03:03:39;;;;;;;0.00;0.00;;;;;;;17.19;62.42;100314.84;7365750;19;20011;-63
2022/06/30 03:06:04;;;;;;;0.00;0.00;;;;;;;17.22;62.02;100316.44;7366088;19;20107;-63
2022/06/30 03:08:30;;;;;;;0.03;0.03;;;;;;;17.21;62.03;100325.31;7368076;19;20286;-63
2022/06/30 03:10:55;;;;;;;0.00;0.00;;;;;;;17.19;62.39;100325.41;7369748;19;20018;-64
2022/06/30 03:13:21;;;;;;;0.00;0.00;;;;;;;17.17;62.62;100327.25;7365450;19;20003;-63
2022/06/30 03:15:48;;;;;;;0.10;0.10;;;;;;;17.15;62.16;100320.38;7370592;19;21024;-63
2022/06/30 03:18:14;;;;;;;0.00;0.00;;;;;;;16.98;62.07;100293.16;7368832;19;20486;-63
2022/06/30 03:20:39;;;;;;;0.00;0.00;;;;;;;17.13;62.42;100323.09;7359912;19;20070;-63
2022/06/30 03:23:04;;;;;;;0.00;0.00;;;;;;;17.09;62.46;100321.59;7369338;19;20006;-64
2022/06/30 03:25:30;;;;;;;0.00;0.00;;;;;;;17.11;62.92;100324.97;7368950;19;20011;-63
2022/06/30 03:27:55;;;;;;;0.00;0.00;;;;;;;17.10;62.58;100321.50;7367853;19;20034;-64
2022/06/30 03:30:21;;;;;;;0.00;0.00;;;;;;;17.09;62.31;100326.84;7368540;19;20025;-63
2022/06/30 03:32:46;;;;;;;0.00;0.00;;;;;;;17.08;62.59;100325.13;7369467;19;20007;-63
2022/06/30 03:35:11;;;;;;;0.00;0.00;;;;;;;17.05;62.54;100323.53;7368855;19;20034;-63
2022/06/30 03:37:37;;;;;;;0.10;0.10;;;;;;;17.03;62.48;100322.78;7365297;19;20529;-63
2022/06/30 03:40:03;;;;;;;0.00;0.00;;;;;;;17.02;62.31;100325.47;7369993;19;20106;-63
2022/06/30 03:42:29;;;;;;;0.00;0.00;;;;;;;17.01;62.07;100334.34;7365803;19;20073;-63
2022/06/30 03:44:54;;;;;;;0.10;0.10;;;;;;;16.98;62.43;100326.56;7370463;19;20028;-64
2022/06/30 03:47:20;;;;;;;0.00;0.00;;;;;;;16.96;62.42;100325.81;7369000;19;20014;-63
2022/06/30 03:49:45;;;;;;;0.00;0.00;;;;;;;16.95;62.88;100330.25;7362127;19;20003;-63
2022/06/30 03:52:10;;;;;;;0.00;0.00;;;;;;;16.92;62.68;100329.56;7367664;19;20011;-63
2022/06/30 03:54:36;;;;;;;0.00;0.00;;;;;;;16.91;62.12;100330.50;7366943;19;20010;-64
2022/06/30 03:57:02;;;;;;;0.00;0.00;;;;;;;16.89;62.65;100329.75;7368957;19;20553;-64
2022/06/30 03:59:27;;;;;;;0.05;0.05;;;;;;;16.80;62.42;100316.13;7364940;19;20019;-64
2022/06/30 04:01:52;;;;;;;0.00;0.00;;;;;;;16.84;62.79;100330.84;7367893;19;20421;-63
2022/06/30 04:04:18;;;;;;;0.00;0.00;;;;;;;16.80;62.70;100326.66;7366893;19;20030;-63
2022/06/30 04:06:43;;;;;;;0.00;0.00;;;;;;;16.78;62.80;100325.91;7368210;19;20003;-63
2022/06/30 04:09:09;;;;;;;0.00;0.00;;;;;;;16.73;63.07;100325.31;7366173;19;20476;-63
2022/06/30 04:11:34;;;;;;;0.00;0.00;;;;;;;16.77;62.99;100334.72;7365292;19;20031;-63
2022/06/30 04:14:00;;;;;;;0.00;0.00;;;;;;;16.76;62.81;100327.75;7367475;19;20011;-63
2022/06/30 04:16:26;;;;;;;0.00;0.00;;;;;;;16.73;63.16;100335.84;7367617;19;20874;-63
2022/06/30 04:18:53;;;;;;;0.00;0.00;;;;;;;16.73;63.24;100335.84;7367885;19;20014;-63
2022/06/30 04:21:18;;;;;;;0.00;0.00;;;;;;;16.70;62.98;100338.59;7366072;19;20105;-62
2022/06/30 04:23:44;;;;;;;0.00;0.00;;;;;;;16.70;63.75;100329.84;7369194;19;20091;-63
2022/06/30 04:26:09;;;;;;;0.00;0.00;;;;;;;16.59;63.22;100327.78;7365937;19;20767;-63
2022/06/30 04:28:36;;;;;;;0.00;0.00;;;;;;;16.71;63.48;100342.09;7365619;19;20025;-63
2022/06/30 04:33:46;;;;;;;0.00;0.00;;;;;;;16.68;63.41;100343.13;7367467;19;20692;-63
2022/06/30 04:36:11;;;;;;;0.00;0.00;;;;;;;16.68;63.49;100342.28;7366519;19;20019;-63
2022/06/30 04:38:36;;;;;;;0.00;0.00;;;;;;;16.66;63.39;100349.41;7364386;19;20022;-63
2022/06/30 04:43:46;;;;;;;0.00;0.00;;;;;;;16.64;63.97;100349.50;7364975;19;20106;-64
2022/06/30 04:46:11;;;;;;;0.00;0.00;;;;;;;16.61;63.87;100344.38;7366274;19;20015;-63
2022/06/30 04:48:36;;;;;;;0.00;0.00;;;;;;;16.63;63.60;100346.94;7364082;19;20739;-63
2022/06/30 04:51:02;;;;;;;0.00;0.00;;;;;;;16.63;63.91;100350.44;7365373;19;20011;-63
2022/06/30 04:53:28;;;;;;;0.00;0.00;;;;;;;16.62;63.34;100353.97;7364618;19;20006;-63
2022/06/30 04:55:53;;;;;;;0.00;0.00;;;;;;;16.55;63.64;100348.19;7367315;19;20003;-63
2022/06/30 04:58:18;;;;;;;0.05;0.05;;;;;;;16.63;63.61;100360.13;7366351;19;20006;-64
2022/06/30 05:00:44;;;;;;;0.00;0.00;;;;;;;16.63;64.13;100354.84;7367352;19;20002;-63
2022/06/30 05:03:09;;;;;;;0.00;0.00;;;;;;;16.63;63.68;100360.97;7366155;19;20017;-63
2022/06/30 05:05:35;;;;;;;0.10;0.10;;;;;;;16.64;63.53;100357.41;7366111;19;20051;-63
2022/06/30 05:08:00;;;;;;;0.00;0.00;;;;;;;16.62;63.54;100356.63;7366648;19;20034;-63
2022/06/30 05:10:26;;;;;;;0.00;0.00;;;;;;;16.62;63.75;100359.25;7366672;19;20018;-63
2022/06/30 05:12:51;;;;;;;0.10;0.10;;;;;;;16.62;63.71;100351.34;7366623;19;20018;-63
2022/06/30 05:15:17;;;;;;;0.00;0.00;;;;;;;16.64;63.93;100359.19;7366104;19;20017;-63
2022/06/30 05:17:42;;;;;;;0.00;0.00;;;;;;;16.62;63.63;100356.63;7361814;19;20025;-63
2022/06/30 05:20:08;;;;;;;0.00;0.00;;;;;;;16.62;63.78;100359.25;7367797;19;20480;-63
2022/06/30 05:22:34;;;;;;;0.00;0.00;;;;;;;16.62;64.06;100359.25;7365748;19;20014;-63
2022/06/30 05:27:47;;;;;;;0.00;0.00;;;;;;;16.65;63.72;100364.38;7365310;19;20762;-63
2022/06/30 05:30:14;;;;;;;0.00;0.00;;;;;;;16.58;63.86;100352.47;7366078;19;20022;-63
2022/06/30 05:32:39;;;;;;;0.00;0.00;;;;;;;16.59;63.94;100359.44;7364822;19;20014;-63
2022/06/30 05:35:06;;;;;;;0.00;0.00;;;;;;;16.56;63.67;100354.31;7366821;19;20030;-64
2022/06/30 05:37:31;;;;;;;0.00;0.00;;;;;;;16.66;64.20;100363.44;7364662;19;20038;-63
2022/06/30 05:39:57;;;;;;;0.00;0.00;;;;;;;16.69;63.81;100371.19;7365563;19;20444;-63
2022/06/30 05:42:22;;;;;;;0.00;0.00;;;;;;;16.69;64.07;100376.47;7364050;19;20166;-63
2022/06/30 05:44:48;;;;;;;0.10;0.10;;;;;;;16.63;63.76;100366.25;7366319;19;20011;-63
2022/06/30 05:47:13;;;;;;;0.00;0.00;;;;;;;16.69;63.44;100372.97;7365806;19;20041;-63
2022/06/30 05:49:39;;;;;;;0.00;0.00;;;;;;;16.67;64.02;100378.31;7367204;19;20034;-63
2022/06/30 05:52:04;;;;;;;0.00;0.00;;;;;;;16.66;64.04;100381.03;7364212;19;20034;-63
2022/06/30 05:54:30;;;;;;;0.10;0.10;;;;;;;16.60;63.80;100377.78;7365187;19;20022;-63
2022/06/30 05:56:56;;;;;;;0.00;0.00;;;;;;;16.64;64.41;100383.75;7364677;19;20010;-63
2022/06/30 05:59:22;;;;;;;0.00;0.00;;;;;;;16.56;64.05;100372.75;7359568;19;20006;-63
2022/06/30 06:01:47;;;;;;;0.00;0.00;;;;;;;16.65;64.17;100390.75;7362673;19;20014;-64
2022/06/30 06:04:12;;;;;;;0.00;0.00;;;;;;;16.67;63.99;100388.84;7364363;19;20014;-63
2022/06/30 06:06:38;;;;;;;0.00;0.00;;;;;;;16.68;64.16;100389.75;7364171;19;20066;-63
2022/06/30 06:09:03;;;;;;;0.00;0.00;;;;;;;16.68;64.02;100395.84;7365498;19;20038;-63
2022/06/30 06:11:30;;;;;;;0.00;0.00;;;;;;;16.68;64.10;100397.66;7364492;19;20331;-63
2022/06/30 06:13:56;;;;;;;0.10;0.10;;;;;;;16.70;64.39;100408.94;7362150;19;20010;-63
2022/06/30 06:16:22;;;;;;;0.00;0.00;;;;;;;16.68;64.10;100401.13;7361172;19;20781;-63
2022/06/30 06:18:47;;;;;;;0.00;0.00;;;;;;;16.56;64.59;100392.06;7361350;19;20014;-63
2022/06/30 06:21:13;;;;;;;0.00;0.00;;;;;;;16.56;64.14;100391.22;7360180;19;20031;-63
2022/06/30 06:23:38;;;;;;;0.00;0.00;;;;;;;16.63;64.28;100405.78;7361667;19;20019;-63
2022/06/30 06:26:04;;;;;;;0.00;0.00;;;;;;;16.67;64.23;100409.94;7359939;19;20025;-64
2022/06/30 06:31:14;;;;;;;0.00;0.00;;;;;;;16.67;64.38;100409.94;7361194;19;20017;-64
2022/06/30 06:33:39;;;;;;;0.00;0.00;;;;;;;16.69;64.55;100418.66;7364988;19;20079;-63
2022/06/30 06:36:05;;;;;;;0.00;0.00;;;;;;;16.69;64.50;100418.66;7362961;19;20019;-63
2022/06/30 06:38:31;;;;;;;0.00;0.00;;;;;;;16.66;64.94;100407.41;7361787;19;20034;-64
2022/06/30 06:40:56;;;;;;;0.00;0.00;;;;;;;16.61;64.16;100399.72;7361547;19;20007;-63
2022/06/30 06:43:22;;;;;;;0.00;0.00;;;;;;;16.66;64.20;100410.88;7360314;19;20010;-64
2022/06/30 06:45:47;;;;;;;0.00;0.00;;;;;;;16.75;64.53;100426.25;7357578;19;20010;-64
2022/06/30 06:48:12;;;;;;;0.00;0.00;;;;;;;16.76;64.77;100424.47;7360900;19;20021;-64
2022/06/30 06:50:38;;;;;;;0.00;0.00;;;;;;;16.74;64.70;100416.66;7361554;19;20010;-64
2022/06/30 06:53:03;;;;;;;0.00;0.00;;;;;;;16.81;64.64;100431.22;7361642;19;20049;-63
2022/06/30 06:55:30;;;;;;;0.00;0.00;;;;;;;16.83;65.16;100432.00;7361440;19;20028;-63
2022/06/30 06:57:55;;;;;;;0.00;0.00;;;;;;;16.71;64.89;100406.25;7362790;19;20036;-63
2022/06/30 07:00:20;;;;;;;0.00;0.00;;;;;;;16.92;64.69;100429.78;7363578;19;20018;-63
2022/06/30 07:02:46;;;;;;;0.00;0.00;;;;;;;16.96;65.09;100429.53;7355440;19;20010;-63
2022/06/30 07:05:11;;;;;;;0.00;0.00;;;;;;;16.99;64.90;100425.91;7360175;19;20094;-63
2022/06/30 07:07:38;;;;;;;0.00;0.00;;;;;;;17.04;64.92;100429.16;7363512;19;20003;-63
2022/06/30 07:10:08;;;;;;;0.00;0.00;;;;;;;17.07;64.93;100423.69;7358329;19;20007;-63
2022/06/30 07:12:34;;;;;;;0.00;0.00;;;;;;;17.21;65.06;100431.72;7342930;19;20021;-63
2022/06/30 07:15:00;;;;;;;0.00;0.00;;;;;;;17.31;65.03;100440.84;7343796;19;20658;-64
2022/06/30 07:17:25;;;;;;;0.00;0.00;;;;;;;17.40;64.57;100436.00;7344246;19;20015;-63
2022/06/30 07:19:51;;;;;;;0.00;0.00;;;;;;;17.48;64.08;100433.75;7344569;19;20947;-64
2022/06/30 07:22:17;;;;;;;0.00;0.00;;;;;;;17.55;64.51;100435.16;7339152;19;20018;-63
2022/06/30 07:24:43;;;;;;;0.00;0.00;;;;;;;17.61;64.40;100440.06;7346141;19;20102;-64
2022/06/30 07:27:09;;;;;;;0.05;0.05;;;;;;;17.70;64.33;100452.78;7356560;19;20070;-64
2022/06/30 07:29:34;;;;;;;0.00;0.00;;;;;;;17.77;64.18;100446.22;7359664;19;20031;-64
2022/06/30 07:31:59;;;;;;;0.00;0.00;;;;;;;17.81;62.93;100447.75;7361237;19;20019;-63
2022/06/30 07:34:25;;;;;;;0.10;0.10;;;;;;;17.91;63.72;100453.38;7353236;19;20045;-63
2022/06/30 07:36:50;;;;;;;0.00;0.00;;;;;;;17.93;62.82;100448.00;7356992;19;20739;-63
2022/06/30 07:39:16;;;;;;;0.00;0.00;;;;;;;17.99;62.66;100456.41;7358836;19;20006;-64
2022/06/30 07:41:41;;;;;;;0.00;0.00;;;;;;;18.02;63.17;100455.41;7366371;19;20007;-64
2022/06/30 07:44:07;;;;;;;0.00;0.00;;;;;;;18.03;62.71;100454.44;7364407;19;20006;-64
2022/06/30 07:46:32;;;;;;;0.00;0.00;;;;;;;18.05;62.58;100452.59;7366207;19;20018;-63
2022/06/30 07:48:58;;;;;;;0.00;0.00;;;;;;;18.07;62.50;100453.34;7368836;19;20631;-64
2022/06/30 07:51:23;;;;;;;0.00;0.00;;;;;;;18.08;62.75;100455.88;7367956;19;20014;-63
2022/06/30 07:53:49;;;;;;;0.00;0.00;;;;;;;18.08;62.68;100455.03;7367188;19;20007;-63
2022/06/30 07:56:15;;;;;;;0.03;0.03;;;;;;;18.12;62.61;100461.84;7360759;19;20117;-63
2022/06/30 07:58:40;;;;;;;0.00;0.00;;;;;;;18.15;62.76;100459.91;7366014;19;20021;-63
2022/06/30 08:01:06;;;;;;;0.00;0.00;;;;;;;18.07;62.29;100435.69;7366740;19;20600;-63
2022/06/30 08:03:31;;;;;;;0.00;0.00;;;;;;;18.20;62.75;100457.00;7369101;19;20006;-63
2022/06/30 08:05:57;;;;;;;0.00;0.00;;;;;;;18.23;62.56;100459.44;7368550;19;20018;-64
2022/06/30 08:08:22;;;;;;;0.03;0.03;;;;;;;18.28;62.37;100456.53;7368465;19;20010;-64
2022/06/30 08:10:48;;;;;;;0.00;0.00;;;;;;;18.32;61.65;100463.34;7368878;19;20011;-64
2022/06/30 08:13:13;;;;;;;0.00;0.00;;;;;;;18.33;61.93;100460.59;7368215;19;20019;-64
2022/06/30 08:15:39;;;;;;;0.00;0.00;;;;;;;18.38;61.32;100458.53;7365544;19;20521;-64
2022/06/30 08:18:06;;;;;;;0.00;0.00;;;;;;;18.42;61.84;100469.78;7368793;19;20010;-64
2022/06/30 08:20:33;;;;;;;0.00;0.00;;;;;;;18.42;61.54;100465.34;7367117;19;20033;-64
2022/06/30 08:22:58;;;;;;;0.00;0.00;;;;;;;18.45;60.91;100460.81;7368634;19;20014;-63
2022/06/30 08:25:24;;;;;;;0.00;0.00;;;;;;;18.47;60.88;100466.88;7368340;19;25445;-63
2022/06/30 08:27:50;;;;;;;0.08;0.08;;;;;;;18.46;61.04;100465.19;7368126;19;20078;-63
2022/06/30 08:30:15;;;;;;;0.10;0.10;;;;;;;18.50;60.94;100462.25;7368257;19;20010;-63
2022/06/30 08:32:41;;;;;;;0.00;0.00;;;;;;;18.48;60.67;100453.56;7366916;19;20441;-64
2022/06/30 08:35:07;;;;;;;0.00;0.00;;;;;;;18.56;60.90;100468.97;7369076;19;20006;-63
2022/06/30 08:37:32;;;;;;;0.00;0.00;;;;;;;18.60;60.70;100468.72;7366226;19;19999;-64
2022/06/30 08:42:42;;;;;;;0.00;0.00;;;;;;;18.71;60.83;100470.75;7367053;19;20369;-64
2022/06/30 08:45:14;;;;;;;0.00;0.00;;;;;;;18.79;60.56;100467.63;7367340;19;22214;-64
2022/06/30 08:47:46;;;;;;;0.10;0.10;;;;;;;18.88;60.47;100462.63;7368333;19;20527;-64
2022/06/30 08:50:14;;;;;;;0.00;0.00;;;;;;;18.97;60.37;100470.94;7368038;19;20521;-64
2022/06/30 08:52:51;;;;;;;0.00;0.00;;;;;;;19.07;59.81;100472.09;7362773;19;20011;-63
2022/06/30 08:55:17;;;;;;;0.00;0.00;;;;;;;19.04;59.66;100451.09;7366990;19;20334;-64
2022/06/30 08:57:45;;;;;;;0.05;0.05;;;;;;;19.24;59.28;100463.94;7367477;19;21357;-64
2022/06/30 09:00:13;;;;;;;0.00;0.00;;;;;;;19.32;58.89;100464.31;7368718;19;20564;-64
2022/06/30 09:02:39;;;;;;;0.00;0.00;;;;;;;19.39;58.65;100462.97;7364817;19;20022;-64
2022/06/30 09:05:06;;;;;;;0.00;0.00;;;;;;;19.51;59.07;100465.78;7365630;19;20043;-64
2022/06/30 09:07:31;;;;;;;0.00;0.00;;;;;;;19.55;57.99;100454.06;7368361;19;20845;-64
2022/06/30 09:09:57;;;;;;;0.00;0.00;;;;;;;19.70;57.60;100463.69;7368083;19;20113;-64
2022/06/30 09:12:22;;;;;;;0.00;0.00;;;;;;;19.74;57.47;100451.97;7366503;19;20013;-64
2022/06/30 09:14:48;;;;;;;0.00;0.00;;;;;;;19.91;57.64;100462.28;7367342;19;20002;-64
2022/06/30 09:17:17;;;;;;;0.00;0.00;;;;;;;20.06;57.02;100471.06;7366754;19;20540;-64
2022/06/30 09:19:59;;;;;;;0.00;0.00;;;;;;;20.22;57.79;100468.22;7367034;19;20029;-63
2022/06/30 09:22:30;;;;;;;0.03;0.03;;;;;;;20.29;57.03;100464.22;7367084;19;20102;-64
2022/06/30 09:24:57;;;;;;;0.10;0.10;;;;;;;20.36;57.11;100465.50;7365738;19;20583;-64
2022/06/30 09:27:24;;;;;;;0.03;0.03;;;;;;;20.49;56.83;100465.56;7365487;19;21138;-63
2022/06/30 09:30:01;;;;;;;0.00;0.00;;;;;;;20.66;56.91;100478.53;7367234;19;20078;-63
2022/06/30 09:32:26;;;;;;;0.00;0.00;;;;;;;20.79;55.85;100473.25;7365609;19;20033;-64
2022/06/30 09:35:05;;;;;;;0.00;0.00;;;;;;;20.91;55.68;100469.72;7366871;19;20540;-64
2022/06/30 09:37:31;;;;;;;0.00;0.00;;;;;;;21.06;55.07;100480.25;7366188;19;20011;-64
2022/06/30 09:39:57;;;;;;;0.00;0.00;;;;;;;21.18;55.36;100480.22;7367183;19;20007;-63
2022/06/30 09:42:45;;;;;;;0.00;0.00;;;;;;;21.38;54.77;100481.50;7364851;19;20015;-64
2022/06/30 09:45:13;;;;;;;0.10;0.10;;;;;;;21.36;54.15;100466.66;7366457;19;20011;-64
2022/06/30 09:47:52;;;;;;;0.00;0.00;;;;;;;21.62;54.60;100478.06;7363984;19;20090;-63
2022/06/30 09:50:18;;;;;;;0.00;0.00;;;;;;;21.67;53.32;100473.25;7365538;19;20457;-64
2022/06/30 09:52:44;;;;;;;0.10;0.10;;;;;;;21.76;52.75;100469.94;7363515;19;20027;-63
2022/06/30 09:55:09;;;;;;;0.05;0.05;;;;;;;21.92;52.96;100478.47;7364252;19;20102;-63
2022/06/30 09:57:43;;;;;;;0.03;0.03;;;;;;;22.07;52.91;100467.66;7362890;19;20021;-64
2022/06/30 10:00:14;;;;;;;0.10;0.10;;;;;;;22.23;51.83;100481.53;7366384;19;20090;-63
2022/06/30 10:02:42;;;;;;;0.00;0.00;;;;;;;22.36;52.06;100479.66;7363712;19;20015;-64
2022/06/30 10:05:09;;;;;;;0.00;0.00;;;;;;;22.45;52.74;100468.31;7363406;19;20030;-62
2022/06/30 10:07:37;;;;;;;0.00;0.00;;;;;;;22.65;51.91;100480.09;7361205;19;20041;-63
2022/06/30 10:10:05;;;;;;;0.10;0.10;;;;;;;22.80;52.19;100478.06;7358064;19;20574;-63
2022/06/30 10:12:31;;;;;;;0.00;0.00;;;;;;;22.92;52.08;100476.31;7361409;19;20041;-63
2022/06/30 10:14:56;;;;;;;0.03;0.03;;;;;;;22.99;51.22;100467.72;7360823;19;20774;-63
2022/06/30 10:17:27;;;;;;;0.00;0.00;;;;;;;23.31;51.95;100462.50;7361428;19;20029;-62
2022/06/30 10:19:53;;;;;;;0.00;0.00;;;;;;;23.54;50.09;100466.00;7361396;19;20014;-64
2022/06/30 10:22:22;;;;;;;0.03;0.03;;;;;;;23.90;48.91;100469.34;7362316;19;20013;-64
2022/06/30 10:24:49;;;;;;;0.10;0.10;;;;;;;24.15;47.95;100462.81;7361723;19;20010;-64
2022/06/30 10:27:16;;;;;;;0.10;0.10;;;;;;;24.44;46.48;100472.91;7361064;19;20050;-63
2022/06/30 10:29:51;;;;;;;0.10;0.10;;;;;;;24.58;48.21;100452.09;7361514;19;20014;-63
2022/06/30 10:32:36;;;;;;;0.10;0.10;;;;;;;24.85;48.36;100472.06;7362379;19;21109;-63
2022/06/30 10:35:27;;;;;;;0.00;0.00;;;;;;;24.99;48.22;100474.38;7364662;19;20015;-63
2022/06/30 10:38:01;;;;;;;0.00;0.00;;;;;;;25.12;46.90;100468.00;7263669;19;2004301;-63
2022/06/30 10:40:44;;;;;;;0.10;0.10;;;;;;;25.30;45.34;100474.41;7360113;19;20015;-63
2022/06/30 10:43:10;;;;;;;0.10;0.10;;;;;;;25.36;43.48;100461.34;7361609;19;20010;-63
2022/06/30 10:45:52;;;;;;;0.10;0.10;;;;;;;25.51;43.98;100471.66;7363054;19;20015;-64
2022/06/30 10:48:18;;;;;;;0.10;0.10;;;;;;;25.55;43.89;100460.56;7360687;19;20034;-63
2022/06/30 10:50:43;;;;;;;0.10;0.10;;;;;;;25.75;43.76;100465.94;7362480;19;20015;-64
2022/06/30 10:53:38;;;;;;;0.10;0.10;;;;;;;26.08;46.54;100462.91;7363199;19;20022;-63
2022/06/30 10:56:04;;;;;;;0.10;0.10;;;;;;;26.24;43.69;100456.97;7253567;19;2004501;-63
2022/06/30 10:58:29;;;;;;;0.10;0.10;;;;;;;26.63;42.20;100455.13;7358959;19;20027;-63
2022/06/30 11:01:02;;;;;;;0.10;0.10;;;;;;;27.22;43.45;100454.94;7359660;19;20023;-64
2022/06/30 11:03:32;;;;;;;0.00;0.00;;;;;;;27.73;42.09;100450.88;7363438;19;20014;-64
2022/06/30 11:06:09;;;;;;;0.00;0.00;;;;;;;28.25;41.32;100449.22;7361280;19;20010;-64
2022/06/30 11:08:47;;;;;;;0.10;0.10;;;;;;;28.98;42.25;100446.22;7357597;19;20025;-64
2022/06/30 11:11:24;;;;;;;0.10;0.10;;;;;;;29.67;42.45;100453.25;7362136;19;20045;-64
2022/06/30 11:13:55;;;;;;;0.10;0.10;;;;;;;30.10;40.83;100445.88;7363102;19;20066;-64
2022/06/30 11:16:22;;;;;;;0.00;0.00;;;;;;;30.28;38.97;100453.00;7364392;19;20022;-64
2022/06/30 11:18:47;;;;;;;0.05;0.05;;;;;;;30.42;36.11;100449.66;7365068;19;20019;-63
2022/06/30 11:21:13;;;;;;;0.00;0.00;;;;;;;30.43;36.60;100451.31;7366479;19;20010;-64
2022/06/30 11:23:46;;;;;;;0.00;0.00;;;;;;;30.45;37.03;100462.75;7367286;19;20026;-64
2022/06/30 11:28:58;;;;;;;0.03;0.03;;;;;;;29.84;36.21;100469.44;7361777;19;20034;-63
2022/06/30 11:31:25;;;;;;;0.00;0.00;;;;;;;29.52;36.65;100462.09;7364207;19;21888;-63
2022/06/30 11:33:57;;;;;;;0.08;0.08;;;;;;;29.24;36.74;100465.00;7363806;19;20389;-63
2022/06/30 11:36:22;;;;;;;0.00;0.00;;;;;;;28.84;36.57;100469.16;7362896;19;20033;-63
2022/06/30 11:38:59;;;;;;;0.00;0.00;;;;;;;28.58;36.93;100474.50;7364073;19;20584;-63
2022/06/30 11:44:15;;;;;;;0.00;0.00;;;;;;;27.73;35.88;100477.69;7364518;19;20093;-63
2022/06/30 11:47:01;;;;;;;0.00;0.00;;;;;;;27.32;38.63;100475.38;7357295;19;20070;-63